Airfield :
LOGIN :

Register | Disclaimer

   EN    FR    IT 

 










Legend :    VFR   Marginal VFR   IFR   Intensive IFR   Very Intensive IFR
Visi :
Ceiling :
>= 8 km
>= 3000ft
5 to 8 km
1000 to 3000 ft
1500m to 5 km
500 to 1000 ft
800 to 1500m
200 to 500 ft
< 800m
< 200 ft
Symbols :   Thunderstorms  Fog  Heavy snow  Heavy precipitations  Wind > 20 kt
SIGMETs :     Misc.  Thunderstorms  Icing  Turbulence  Mountain Waves  Volcanic Ashes






- Airport Elevation : 675 ft
- IATA code : RZE


EPRZ - Rzeszow-Jasionka

CURRENT METAR :
  • 190500Z 10006KT 0400 R27/1800U FZFG VV001 M01/M02 Q1026

EXPIRED METARs :
  • 190430Z 10005KT 0300 R27/0900N FZFG VV001 M01/M02 Q1025
  • 190400Z 11004KT 0300 R27/0900N FZFG VV001 M01/M02 Q1025
  • 190330Z 12003KT 0250 R27/0900N FZFG VV001 M01/M02 Q1025
  • 190300Z 11002KT 0200 R27/0900N FZFG VV001 M01/M02 Q1025
  • 190230Z 11003KT 0100 R27/0800N FZFG VV001 M01/M02 Q1025

TAF TAF EPRZ
Valid from the 19 at 00:00 until the 20 at 00:00 UTC


182330Z 1900/1924 VRB02KT 0100 FZFG OVC001
TEMPO 1900/1908 1000 BR BKN003
PROB30
TEMPO 1900/1907 -FZDZ
BECMG 1908/1911 4000 BR BKN008
TEMPO 1908/1918 2000 -RASN BR BKN003
BECMG 1918/1921 1500 -RA BR BKN004
TEMPO 1921/1924 0800 FG OVC001



MET'MAP, your aeronautical weather chart ! - Copyright ORBIFLY December 2007 - Disclaimer

ORBIFLY MET'MAP TEAM :

Programming & Development : Alexandra Zaïnal
Concept & original design : Baudouin d'Aumeries
Assistance for programming : Marc-Olivier Méhu
Technical & hardware support : Manuel Goepfert

Contact : metmap@orbifly.com




SOURCES & CREDITS :

   NOAA